createdAt,value
2023-01-01T00:01:26.555Z,15.27
2023-01-01T00:03:55.766Z,14.82
2023-01-01T00:06:23.296Z,16.13
2023-01-01T00:09:10.260Z,15.45
2023-01-01T00:11:36.904Z,19.20
2023-01-01T00:14:10.160Z,20.33
2023-01-01T00:16:39.114Z,19.40
2023-01-01T00:19:05.815Z,21.10
2023-01-01T00:21:32.465Z,21.92
2023-01-01T00:23:59.331Z,25.98
2023-01-01T00:26:29.504Z,26.48
2023-01-01T00:29:02.151Z,26.80
2023-01-01T00:31:29.013Z,23.30
2023-01-01T00:33:56.510Z,25.33
2023-01-01T00:36:25.382Z,21.27
2023-01-01T00:38:52.017Z,21.42
2023-01-01T00:41:18.793Z,19.65
2023-01-01T00:43:45.703Z,17.35
2023-01-01T00:46:12.998Z,26.02
2023-01-01T00:48:40.231Z,26.98
2023-01-01T00:51:07.514Z,25.48
2023-01-01T00:53:34.183Z,23.15
2023-01-01T00:56:00.811Z,22.00
2023-01-01T00:58:28.470Z,21.23
2023-01-01T01:00:55.272Z,21.33
2023-01-01T01:03:31.056Z,23.08
2023-01-01T01:06:11.196Z,24.13
2023-01-01T01:08:40.501Z,32.25
2023-01-01T01:11:13.158Z,25.15
2023-01-01T01:13:40.952Z,21.33
2023-01-01T01:16:12.989Z,20.50
2023-01-01T01:18:40.135Z,19.63
2023-01-01T01:21:07.023Z,19.00
2023-01-01T01:23:33.773Z,19.35
2023-01-01T01:26:30.635Z,19.90
2023-01-01T01:28:58.234Z,22.42
2023-01-01T01:31:28.034Z,25.98
2023-01-01T01:33:54.924Z,23.00
2023-01-01T01:36:21.801Z,19.75
2023-01-01T01:38:48.469Z,15.90
2023-01-01T01:41:27.252Z,15.77
2023-01-01T01:44:27.329Z,15.45
2023-01-01T01:46:54.016Z,12.60
2023-01-01T01:49:30.492Z,13.75
2023-01-01T01:51:58.893Z,14.82
2023-01-01T01:54:29.109Z,13.10
2023-01-01T01:56:59.709Z,12.88
2023-01-01T01:59:32.083Z,12.57
2023-01-01T02:01:59.645Z,13.88
2023-01-01T02:04:30.358Z,12.70
2023-01-01T02:06:57.227Z,13.63
2023-01-01T02:09:23.822Z,13.68
2023-01-01T02:11:50.403Z,16.08
2023-01-01T02:14:17.095Z,16.10
2023-01-01T02:16:53.699Z,15.98
2023-01-01T02:19:35.405Z,18.10
2023-01-01T02:22:06.840Z,17.08
2023-01-01T02:25:02.376Z,18.27
2023-01-01T02:27:44.206Z,18.30
2023-01-01T02:30:12.047Z,17.55
2023-01-01T02:32:47.237Z,17.70
2023-01-01T02:35:38.562Z,19.05
2023-01-01T02:38:11.240Z,18.50
2023-01-01T02:40:44.247Z,20.05
2023-01-01T02:43:10.980Z,18.75
2023-01-01T02:45:37.567Z,19.83
2023-01-01T02:48:28.624Z,20.15
2023-01-01T02:51:01.154Z,19.50
2023-01-01T02:53:36.001Z,18.75
2023-01-01T02:56:16.467Z,18.65
2023-01-01T02:59:14.056Z,19.00
2023-01-01T03:01:46.614Z,19.13
2023-01-01T03:04:22.783Z,19.48
2023-01-01T03:07:02.715Z,18.48
2023-01-01T03:09:29.411Z,18.08
2023-01-01T03:12:09.912Z,18.48
2023-01-01T03:14:47.241Z,18.33
2023-01-01T03:17:33.150Z,18.73
2023-01-01T03:20:05.294Z,21.75
2023-01-01T03:22:34.948Z,19.42
2023-01-01T03:25:09.193Z,20.75
2023-01-01T03:27:49.401Z,20.00
2023-01-01T03:30:19.860Z,18.63
2023-01-01T03:33:07.934Z,17.80
2023-01-01T03:35:43.880Z,21.38
2023-01-01T03:38:42.043Z,20.42
2023-01-01T03:41:37.858Z,20.42
2023-01-01T03:44:10.787Z,19.73
2023-01-01T03:46:38.023Z,19.40
2023-01-01T03:49:09.194Z,18.23
2023-01-01T03:51:47.246Z,17.25
2023-01-01T03:54:23.102Z,17.45
2023-01-01T03:56:59.321Z,17.85
2023-01-01T03:59:33.939Z,17.52
2023-01-01T04:02:04.151Z,16.42
2023-01-01T04:04:31.884Z,17.80
2023-01-01T04:07:09.350Z,16.80
2023-01-01T04:09:47.058Z,16.85
2023-01-01T04:12:15.007Z,17.58
2023-01-01T04:14:43.019Z,18.27
2023-01-01T04:17:11.725Z,16.65
2023-01-01T04:19:38.717Z,17.35
2023-01-01T04:22:09.535Z,15.20
2023-01-01T04:24:36.141Z,15.00
2023-01-01T04:27:02.728Z,14.43
2023-01-01T04:29:29.348Z,15.88
2023-01-01T04:31:55.967Z,15.85
2023-01-01T04:34:22.564Z,14.90
2023-01-01T04:36:49.149Z,14.82
2023-01-01T04:39:15.747Z,14.55
2023-01-01T04:41:42.309Z,14.07
2023-01-01T04:44:08.859Z,14.13
2023-01-01T04:46:35.462Z,14.93
2023-01-01T04:49:02.057Z,15.88
2023-01-01T04:51:28.630Z,15.27
2023-01-01T04:53:55.261Z,16.02
2023-01-01T04:56:23.151Z,16.52
2023-01-01T04:58:49.930Z,14.70
2023-01-01T05:01:20.809Z,16.38
2023-01-01T05:03:48.375Z,14.65
2023-01-01T05:06:16.143Z,15.50
2023-01-01T05:08:45.953Z,16.05
2023-01-01T05:11:21.666Z,16.25
2023-01-01T05:13:50.013Z,16.50
2023-01-01T05:16:22.573Z,15.38
2023-01-01T05:18:49.923Z,14.75
2023-01-01T05:21:19.300Z,16.23
2023-01-01T05:23:46.380Z,16.98
2023-01-01T05:26:22.326Z,15.13
2023-01-01T05:28:50.220Z,16.77
2023-01-01T05:31:20.363Z,17.40
2023-01-01T05:33:47.288Z,17.08
2023-01-01T05:36:26.991Z,17.15
2023-01-01T05:38:54.354Z,16.25
2023-01-01T05:41:21.993Z,20.17
2023-01-01T05:43:49.131Z,18.02
2023-01-01T05:46:21.846Z,22.45
2023-01-01T05:48:48.752Z,20.38
2023-01-01T05:51:23.908Z,17.92
2023-01-01T05:53:51.666Z,18.00
2023-01-01T05:56:18.706Z,16.83
2023-01-01T05:58:46.600Z,17.38
2023-01-01T06:01:17.713Z,16.40
2023-01-01T06:03:44.931Z,17.73
2023-01-01T06:06:13.889Z,16.30
2023-01-01T06:08:40.947Z,16.80
2023-01-01T06:11:11.457Z,16.30
2023-01-01T06:13:38.116Z,19.97
2023-01-01T06:16:05.229Z,18.50
2023-01-01T06:18:34.377Z,20.92
2023-01-01T06:21:14.187Z,19.90
2023-01-01T06:23:41.731Z,20.05
2023-01-01T06:26:31.107Z,22.10
2023-01-01T06:28:58.906Z,20.58
2023-01-01T06:31:26.796Z,19.52
2023-01-01T06:33:53.615Z,19.17
2023-01-01T06:36:22.947Z,21.13
2023-01-01T06:38:52.943Z,21.08
2023-01-01T06:41:22.205Z,20.92
2023-01-01T06:43:49.245Z,20.48
2023-01-01T06:46:28.154Z,20.58
2023-01-01T06:48:59.825Z,19.95
2023-01-01T06:51:29.347Z,19.60
2023-01-01T06:53:59.417Z,17.17
2023-01-01T06:56:26.258Z,19.02
2023-01-01T06:58:52.878Z,20.02
2023-01-01T07:01:22.532Z,22.98
2023-01-01T07:04:04.015Z,23.77
2023-01-01T07:06:32.709Z,24.58
2023-01-01T07:08:59.395Z,23.88
2023-01-01T07:11:26.699Z,25.50
2023-01-01T07:13:53.688Z,23.52
2023-01-01T07:16:20.543Z,23.23
2023-01-01T07:18:49.072Z,22.95
2023-01-01T07:21:34.026Z,23.02
2023-01-01T07:24:03.713Z,22.75
2023-01-01T07:26:31.584Z,19.50
2023-01-01T07:29:06.228Z,20.83
2023-01-01T07:31:37.818Z,21.42
2023-01-01T07:34:06.188Z,20.88
2023-01-01T07:36:33.204Z,21.77
2023-01-01T07:38:59.856Z,22.50
2023-01-01T07:41:26.514Z,21.58
2023-01-01T07:43:53.054Z,21.65
2023-01-01T07:46:19.862Z,22.08
2023-01-01T07:48:46.743Z,21.10
2023-01-01T07:51:13.390Z,22.65
2023-01-01T07:53:40.049Z,19.98
2023-01-01T07:56:07.389Z,20.15
2023-01-01T07:58:33.985Z,20.60
2023-01-01T08:01:00.687Z,20.15
2023-01-01T08:03:27.846Z,21.45
2023-01-01T08:05:54.445Z,22.45
2023-01-01T08:08:21.135Z,20.20
2023-01-01T08:10:47.769Z,21.90
2023-01-01T08:13:14.345Z,23.63
2023-01-01T08:15:41.039Z,22.80
2023-01-01T08:18:07.910Z,23.67
2023-01-01T08:20:34.753Z,21.15
2023-01-01T08:23:07.195Z,22.90
2023-01-01T08:25:35.057Z,24.58
2023-01-01T08:28:02.628Z,25.27
2023-01-01T08:30:29.410Z,26.55
2023-01-01T08:32:56.036Z,27.35
2023-01-01T08:35:22.624Z,25.77
2023-01-01T08:37:49.169Z,24.33
2023-01-01T08:40:16.565Z,25.25
2023-01-01T08:42:43.167Z,24.10
2023-01-01T08:45:10.325Z,24.50
2023-01-01T08:47:36.948Z,25.15
2023-01-01T08:50:04.168Z,24.13
2023-01-01T08:52:31.549Z,23.60
2023-01-01T08:54:58.182Z,23.38
2023-01-01T08:57:24.779Z,23.90
2023-01-01T08:59:51.399Z,21.33
2023-01-01T09:02:18.100Z,24.83
2023-01-01T09:04:44.901Z,22.20
2023-01-01T09:07:11.479Z,24.33
2023-01-01T09:09:38.224Z,25.13
2023-01-01T09:12:06.468Z,20.38
2023-01-01T09:14:34.207Z,23.27
2023-01-01T09:17:01.347Z,22.83
2023-01-01T09:19:28.294Z,24.70
2023-01-01T09:21:55.280Z,20.48
2023-01-01T09:24:22.100Z,24.48
2023-01-01T09:26:48.708Z,22.08
2023-01-01T09:29:18.658Z,23.17
2023-01-01T09:31:49.243Z,23.25
2023-01-01T09:34:17.830Z,22.45
2023-01-01T09:36:44.749Z,23.38
2023-01-01T09:39:15.705Z,23.20
2023-01-01T09:42:00.933Z,22.88
2023-01-01T09:44:57.304Z,22.20
2023-01-01T09:47:26.368Z,21.38
2023-01-01T09:49:56.928Z,22.27
2023-01-01T09:52:28.303Z,21.27
2023-01-01T09:55:03.182Z,23.27
2023-01-01T09:57:32.792Z,22.08
2023-01-01T10:00:00.433Z,22.63
2023-01-01T10:02:36.957Z,23.58
2023-01-01T10:05:11.269Z,24.65
2023-01-01T10:07:43.799Z,24.08
2023-01-01T10:10:14.586Z,22.25
2023-01-01T10:12:48.666Z,22.50
2023-01-01T10:15:23.535Z,21.63
2023-01-01T10:17:55.861Z,22.70
2023-01-01T10:20:55.481Z,20.15
2023-01-01T10:23:32.173Z,21.85
2023-01-01T10:26:03.432Z,22.88
2023-01-01T10:31:15.381Z,19.90
2023-01-01T10:33:42.807Z,21.02
2023-01-01T10:36:14.147Z,21.42
2023-01-01T10:38:41.405Z,20.38
2023-01-01T10:41:17.068Z,22.02
2023-01-01T10:43:46.774Z,20.38
2023-01-01T10:46:27.608Z,21.38
2023-01-01T10:49:14.477Z,20.58
2023-01-01T10:51:52.504Z,20.20
2023-01-01T10:54:32.059Z,21.50
2023-01-01T10:57:00.054Z,20.98
2023-01-01T10:59:36.413Z,19.50
2023-01-01T11:02:17.857Z,19.85
2023-01-01T11:04:45.286Z,19.27
2023-01-01T11:07:18.249Z,17.33
2023-01-01T11:10:02.717Z,18.90
2023-01-01T11:15:42.909Z,18.35
2023-01-01T11:18:20.974Z,18.52
2023-01-01T11:20:55.584Z,18.02
2023-01-01T11:23:34.201Z,17.33
2023-01-01T11:26:18.953Z,16.05
2023-01-01T11:29:22.455Z,16.10
2023-01-01T11:31:49.451Z,16.30
2023-01-01T11:34:41.037Z,13.45
2023-01-01T11:37:33.134Z,15.07
2023-01-01T11:40:02.042Z,14.15
2023-01-01T11:42:35.547Z,20.25
2023-01-01T11:45:11.027Z,17.02
2023-01-01T11:47:43.368Z,13.82
2023-01-01T11:50:28.544Z,13.98
2023-01-01T11:53:00.340Z,15.02
2023-01-01T11:55:37.782Z,14.30
2023-01-01T11:58:19.321Z,15.48
2023-01-01T12:00:49.696Z,13.77
2023-01-01T12:03:34.680Z,15.57
2023-01-01T12:06:10.759Z,13.95
2023-01-01T12:08:41.975Z,12.75
2023-01-01T12:11:34.916Z,12.32
2023-01-01T12:14:16.953Z,10.70
2023-01-01T12:17:09.170Z,10.52
2023-01-01T12:19:47.827Z,9.50
2023-01-01T12:22:19.323Z,7.93
2023-01-01T12:24:48.236Z,9.77
2023-01-01T12:27:40.956Z,9.23
2023-01-01T12:30:18.814Z,9.63
2023-01-01T12:32:51.358Z,6.63
2023-01-01T12:35:36.676Z,6.53
2023-01-01T12:38:30.503Z,7.57
2023-01-01T12:41:13.299Z,17.30
2023-01-01T12:43:44.073Z,12.18
2023-01-01T12:46:27.796Z,7.18
2023-01-01T12:49:03.316Z,4.57
2023-01-01T12:51:45.015Z,3.33
2023-01-01T12:54:33.391Z,2.45
2023-01-01T12:57:05.941Z,2.63
2023-01-01T12:59:36.186Z,2.20
2023-01-01T13:02:14.843Z,2.10
2023-01-01T13:07:13.237Z,2.00
2023-01-01T13:09:45.168Z,6.18
2023-01-01T13:12:16.805Z,9.57
2023-01-01T13:14:46.860Z,11.75
2023-01-01T13:17:29.181Z,14.63
2023-01-01T13:19:59.446Z,13.75
2023-01-01T13:22:27.162Z,14.80
2023-01-01T13:25:17.769Z,15.15
2023-01-01T13:28:00.369Z,14.98
2023-01-01T13:30:36.339Z,14.25
2023-01-01T13:33:29.937Z,14.98
2023-01-01T13:36:09.187Z,15.10
2023-01-01T13:38:47.885Z,15.10
2023-01-01T13:41:26.645Z,15.07
2023-01-01T13:44:11.981Z,16.00
2023-01-01T13:46:41.662Z,16.73
2023-01-01T13:49:34.756Z,16.58
2023-01-01T13:52:23.243Z,14.50
2023-01-01T13:55:18.863Z,16.40
2023-01-01T13:58:03.779Z,16.85
2023-01-01T14:00:36.201Z,16.88
2023-01-01T14:03:11.417Z,16.25
2023-01-01T14:05:41.755Z,16.30
2023-01-01T14:08:28.467Z,16.90
2023-01-01T14:10:55.163Z,15.50
2023-01-01T14:13:29.810Z,16.30
2023-01-01T14:16:00.746Z,16.45
2023-01-01T14:18:33.731Z,16.30
2023-01-01T14:21:00.502Z,16.00
2023-01-01T14:23:36.684Z,16.48
2023-01-01T14:26:10.773Z,15.98
2023-01-01T14:28:38.427Z,15.18
2023-01-01T14:31:11.433Z,16.13
2023-01-01T14:33:39.281Z,15.43
2023-01-01T14:36:16.226Z,15.02
2023-01-01T14:38:46.203Z,15.65
2023-01-01T14:41:29.262Z,16.75
2023-01-01T14:44:13.934Z,17.63
2023-01-01T14:46:43.778Z,16.98
2023-01-01T14:49:16.818Z,15.38
2023-01-01T14:51:50.219Z,15.55
2023-01-01T14:54:22.533Z,17.00
2023-01-01T14:56:51.334Z,17.55
2023-01-01T14:59:28.567Z,16.63
2023-01-01T15:02:22.613Z,18.67
2023-01-01T15:04:49.695Z,17.20
2023-01-01T15:07:23.867Z,18.90
2023-01-01T15:09:52.102Z,19.10
2023-01-01T15:12:20.061Z,18.92
2023-01-01T15:14:48.971Z,18.58
2023-01-01T15:17:26.511Z,18.52
2023-01-01T15:20:06.977Z,18.52
2023-01-01T15:22:39.201Z,17.08
2023-01-01T15:25:12.704Z,18.27
2023-01-01T15:27:41.896Z,18.30
2023-01-01T15:30:26.520Z,19.08
2023-01-01T15:32:53.734Z,19.08
2023-01-01T15:35:31.136Z,18.05
2023-01-01T15:38:02.653Z,19.13
2023-01-01T15:40:31.421Z,17.98
2023-01-01T15:42:57.934Z,17.73
2023-01-01T15:45:41.585Z,16.33
2023-01-01T15:48:11.133Z,16.85
2023-01-01T15:50:44.028Z,16.95
2023-01-01T15:53:21.529Z,17.02
2023-01-01T15:55:56.375Z,17.45
2023-01-01T15:58:32.512Z,16.50
2023-01-01T16:01:02.759Z,17.33
2023-01-01T16:03:31.793Z,18.03
2023-01-01T16:05:58.896Z,18.30
2023-01-01T16:08:25.557Z,17.63
2023-01-01T16:10:52.418Z,16.27
2023-01-01T16:13:19.568Z,16.80
2023-01-01T16:18:40.348Z,17.05
2023-01-01T16:21:07.080Z,18.50
2023-01-01T16:23:33.725Z,17.90
2023-01-01T16:26:00.349Z,15.80
2023-01-01T16:28:28.298Z,17.00
2023-01-01T16:30:55.551Z,17.70
2023-01-01T16:33:25.580Z,17.08
2023-01-01T16:35:52.252Z,17.05
2023-01-01T16:38:18.911Z,16.88
2023-01-01T16:40:45.526Z,16.85
2023-01-01T16:43:18.950Z,14.45
2023-01-01T16:45:45.774Z,15.85
2023-01-01T16:48:12.532Z,16.42
2023-01-01T16:50:39.175Z,14.80
2023-01-01T16:53:05.870Z,15.20
2023-01-01T16:55:32.471Z,15.85
2023-01-01T16:58:29.504Z,16.15
2023-01-01T17:00:45.987Z,15.65
2023-01-01T17:03:13.082Z,19.40
2023-01-01T17:05:44.079Z,20.08
2023-01-01T17:08:11.663Z,18.60
2023-01-01T17:10:38.231Z,17.70
2023-01-01T17:13:04.831Z,16.35
2023-01-01T17:15:32.402Z,15.35
2023-01-01T17:17:59.149Z,15.52
2023-01-01T17:20:26.225Z,16.02
2023-01-01T17:22:52.864Z,15.70
2023-01-01T17:25:19.489Z,15.55
2023-01-01T17:27:46.165Z,16.85
2023-01-01T17:30:13.781Z,17.27
2023-01-01T17:32:40.487Z,16.52
2023-01-01T17:35:07.856Z,15.77
2023-01-01T17:37:34.569Z,18.55
2023-01-01T17:40:01.319Z,17.38
2023-01-01T17:42:28.793Z,17.30
2023-01-01T17:44:55.432Z,17.30
2023-01-01T17:47:22.411Z,18.10
2023-01-01T17:49:51.075Z,21.35
2023-01-01T17:52:17.813Z,18.23
2023-01-01T17:54:44.376Z,17.63
2023-01-01T17:57:10.953Z,19.25
2023-01-01T17:59:37.557Z,19.17
2023-01-01T18:02:05.906Z,17.48
2023-01-01T18:04:32.781Z,16.27
2023-01-01T18:07:05.959Z,15.73
2023-01-01T18:09:33.203Z,16.88
2023-01-01T18:11:59.859Z,16.45
2023-01-01T18:14:28.461Z,15.48
2023-01-01T18:16:55.248Z,16.63
2023-01-01T18:19:21.833Z,17.40
2023-01-01T18:21:48.426Z,17.15
2023-01-01T18:24:15.736Z,17.10
2023-01-01T18:26:42.841Z,17.88
2023-01-01T18:29:09.624Z,17.23
2023-01-01T18:31:36.331Z,16.15
2023-01-01T18:34:04.319Z,16.27
2023-01-01T18:36:32.855Z,17.88
2023-01-01T18:39:09.998Z,15.88
2023-01-01T18:41:49.093Z,16.17
2023-01-01T18:44:25.076Z,16.83
2023-01-01T18:46:57.722Z,16.10
2023-01-01T18:49:25.488Z,18.38
2023-01-01T18:51:57.038Z,22.20
2023-01-01T18:54:24.562Z,19.70
2023-01-01T18:57:03.986Z,21.63
2023-01-01T18:59:30.550Z,21.73
2023-01-01T19:01:57.771Z,20.67
2023-01-01T19:04:24.373Z,19.73
2023-01-01T19:06:51.167Z,21.85
2023-01-01T19:09:23.484Z,22.45
2023-01-01T19:11:52.569Z,19.83
2023-01-01T19:14:24.189Z,24.60
2023-01-01T19:16:55.045Z,25.73
2023-01-01T19:19:26.300Z,24.45
2023-01-01T19:24:31.735Z,24.60
2023-01-01T19:27:12.167Z,23.02
2023-01-01T19:29:43.557Z,24.38
2023-01-01T19:32:10.384Z,21.98
2023-01-01T19:34:38.571Z,20.88
2023-01-01T19:37:06.334Z,42.92
2023-01-01T19:39:34.697Z,35.25
2023-01-01T19:42:05.059Z,39.30
2023-01-01T19:44:32.176Z,37.83
2023-01-01T19:47:00.910Z,31.92
2023-01-01T19:49:28.101Z,29.50
2023-01-01T19:51:54.819Z,24.95
2023-01-01T19:54:21.441Z,20.33
2023-01-01T19:56:49.973Z,19.75
2023-01-01T19:59:16.569Z,18.30
2023-01-01T20:01:43.378Z,19.40
2023-01-01T20:04:10.586Z,19.13
2023-01-01T20:06:37.833Z,16.35
2023-01-01T20:09:04.530Z,17.00
2023-01-01T20:11:32.041Z,18.20
2023-01-01T20:13:58.936Z,18.17
2023-01-01T20:16:25.908Z,18.23
2023-01-01T20:18:52.607Z,20.08
2023-01-01T20:21:37.455Z,19.70
2023-01-01T20:24:04.358Z,18.85
2023-01-01T20:26:31.059Z,18.52
2023-01-01T20:29:16.076Z,18.23
2023-01-01T20:31:43.262Z,16.13
2023-01-01T20:34:10.381Z,16.52
2023-01-01T20:36:55.706Z,17.35
2023-01-01T20:39:22.780Z,18.40
2023-01-01T20:41:50.053Z,17.95
2023-01-01T20:44:16.914Z,18.00
2023-01-01T20:46:45.854Z,18.95
2023-01-01T20:49:12.505Z,19.77
2023-01-01T20:51:39.096Z,19.85
2023-01-01T20:54:06.035Z,17.77
2023-01-01T20:56:32.688Z,18.42
2023-01-01T20:59:07.658Z,18.95
2023-01-01T21:01:44.562Z,16.30
2023-01-01T21:04:11.391Z,16.88
2023-01-01T21:06:38.242Z,16.20
2023-01-01T21:09:05.435Z,16.45
2023-01-01T21:11:36.205Z,15.95
2023-01-01T21:14:03.422Z,17.10
2023-01-01T21:16:36.666Z,14.23
2023-01-01T21:19:07.227Z,16.15
2023-01-01T21:21:43.073Z,16.60
2023-01-01T21:24:24.238Z,14.02
2023-01-01T21:26:55.062Z,14.93
2023-01-01T21:29:25.479Z,14.07
2023-01-01T21:31:57.412Z,14.23
2023-01-01T21:34:34.452Z,15.05
2023-01-01T21:37:43.679Z,14.45
2023-01-01T21:41:12.076Z,14.18
2023-01-01T21:43:41.972Z,15.52
2023-01-01T21:46:08.660Z,14.57
2023-01-01T21:48:36.917Z,14.57
2023-01-01T21:51:19.736Z,14.70
2023-01-01T21:53:46.464Z,14.50
2023-01-01T21:56:28.325Z,14.77
2023-01-01T21:59:19.499Z,15.23
2023-01-01T22:01:49.104Z,14.43
2023-01-01T22:04:19.135Z,13.55
2023-01-01T22:06:51.667Z,14.73
2023-01-01T22:09:21.687Z,14.95
2023-01-01T22:11:52.961Z,15.05
2023-01-01T22:14:25.455Z,15.50
2023-01-01T22:16:55.972Z,12.82
2023-01-01T22:19:24.359Z,13.53
2023-01-01T22:21:52.499Z,13.52
2023-01-01T22:24:23.234Z,13.88
2023-01-01T22:26:49.927Z,12.77
2023-01-01T22:29:23.102Z,12.82
2023-01-01T22:32:01.003Z,13.68
2023-01-01T22:34:27.663Z,12.52
2023-01-01T22:36:54.889Z,13.40
2023-01-01T22:39:34.866Z,12.65
2023-01-01T22:42:03.484Z,12.95
2023-01-01T22:44:33.496Z,13.70
2023-01-01T22:47:03.031Z,14.43
2023-01-01T22:49:40.321Z,13.40
2023-01-01T22:52:08.207Z,13.40
2023-01-01T22:54:37.718Z,13.68
2023-01-01T22:57:05.736Z,13.73
2023-01-01T22:59:32.292Z,13.95
2023-01-01T23:02:00.304Z,14.18
2023-01-01T23:04:27.115Z,15.10
2023-01-01T23:06:54.322Z,14.82
2023-01-01T23:09:20.974Z,15.20
2023-01-01T23:11:47.607Z,15.45
2023-01-01T23:14:37.074Z,15.35
2023-01-01T23:17:05.594Z,14.48
2023-01-01T23:19:32.310Z,14.25
2023-01-01T23:22:02.828Z,14.10
2023-01-01T23:24:31.079Z,15.52
2023-01-01T23:26:58.897Z,15.32
2023-01-01T23:29:29.337Z,15.75
2023-01-01T23:31:56.359Z,14.20
2023-01-01T23:34:23.211Z,14.18
2023-01-01T23:36:52.218Z,13.88
2023-01-01T23:39:18.782Z,14.45
2023-01-01T23:41:46.977Z,12.98
2023-01-01T23:44:13.549Z,13.10
2023-01-01T23:46:40.378Z,13.65
2023-01-01T23:49:07.776Z,12.57
2023-01-01T23:51:35.138Z,12.13
2023-01-01T23:54:01.808Z,12.20
2023-01-01T23:56:28.433Z,12.60
2023-01-01T23:58:55.006Z,12.57
